Yuma International Airport

Airport
ICAO code: 
KNYL
Summary
ICAO Region: 
NAM
Territory: 
Location: 
Yuma, Arizona,
Coordinates: 
Aerial View: 
32° 40' 6.971" N, 114° 35' 56.368" W
Airport RI: 
Runway Misidentification
Metar
Observation
KNYL 251857Z 18009G17KT 7SM CLR 34/03 A2982 RMK AO2 SLP096 T03440033
Station
Yuma, Marine Corps Air Station
Date/Time
2022-05-25 18:57:00
Wind direction
180°
Wind speed
09 kts
Lowest cloud amount
n/a
Temperature
34.4°C
Dew point
3.3°C
Humidity
14%
Weather condition
n/a

Description

Joint use public and military (USMC) international airport serving Yuma, Arizona.

Climatology

Desert climate (Köppen climate classification Bwh) with extremely hot summers and warm winters. Yuma is one of the hottest cities of any size in Arizona, with average July high temperatures of 107 °F (42 °C). Yuma is among the sunniest places on earth. Of the possible 4,456 hours of daylight each year, the sun shines in Yuma for roughly 4,174 hours, or about 94% of the time.

Runways

Designator Length Width Surface Rops
17/35 1740 46 ASP Yes/Yes
8/26 1873 46 ASP Yes/Yes
03R/21L 2816 46 ASP Yes/Yes
03L/21R 4054 61 CON Yes/Yes
Airport map: 
Aerial View: 

SKYbrary Partners:

Safety knowledge contributed by: